createdAt,value
2023-03-13T00:01:26.110Z,98904.38
2023-03-13T00:03:55.357Z,98889.63
2023-03-13T00:06:38.912Z,98879.72
2023-03-13T00:09:09.361Z,98869.13
2023-03-13T00:11:36.553Z,98877.84
2023-03-13T00:14:05.319Z,98870.88
2023-03-13T00:16:34.605Z,98875.34
2023-03-13T00:19:01.998Z,98871.88
2023-03-13T00:21:30.170Z,98885.81
2023-03-13T00:23:59.564Z,98870.53
2023-03-13T00:26:28.840Z,98868.75
2023-03-13T00:28:56.357Z,98861.81
2023-03-13T00:31:30.359Z,98868.06
2023-03-13T00:34:03.122Z,98866.84
2023-03-13T00:36:35.636Z,98861.78
2023-03-13T00:39:04.901Z,98859.09
2023-03-13T00:41:34.268Z,98860.75
2023-03-13T00:44:01.981Z,98856.38
2023-03-13T00:46:30.291Z,98866.03
2023-03-13T00:48:58.052Z,98853.03
2023-03-13T00:51:27.594Z,98863.41
2023-03-13T00:53:57.209Z,98868.63
2023-03-13T00:56:24.433Z,98858.13
2023-03-13T00:58:51.943Z,98865.06
2023-03-13T01:01:26.111Z,98855.34
2023-03-13T01:04:05.738Z,98868.47
2023-03-13T01:06:35.949Z,98845.13
2023-03-13T01:09:06.034Z,98842.56
2023-03-13T01:11:36.685Z,98852.31
2023-03-13T01:14:07.918Z,98845.28
2023-03-13T01:16:36.840Z,98848.09
2023-03-13T01:19:14.212Z,98846.06
2023-03-13T01:21:43.840Z,98839.84
2023-03-13T01:24:11.379Z,98834.47
2023-03-13T01:26:38.483Z,98829.28
2023-03-13T01:29:05.739Z,98813.66
2023-03-13T01:31:36.039Z,98818.25
2023-03-13T01:34:06.411Z,98819.84
2023-03-13T01:36:36.402Z,98812.19
2023-03-13T01:39:03.901Z,98813.94
2023-03-13T01:41:31.865Z,98800.81
2023-03-13T01:43:59.937Z,98787.06
2023-03-13T01:46:29.872Z,98785.25
2023-03-13T01:49:21.025Z,98788.06
2023-03-13T01:52:04.785Z,98779.28
2023-03-13T01:54:40.837Z,98768.72
2023-03-13T01:57:21.548Z,98758.19
2023-03-13T02:00:08.082Z,98769.72
2023-03-13T02:02:37.141Z,98767.94
2023-03-13T02:05:07.249Z,98775.88
2023-03-13T02:08:14.266Z,98782.16
2023-03-13T02:10:51.627Z,98787.56
2023-03-13T02:13:20.529Z,98794.63
2023-03-13T02:15:48.385Z,98797.31
2023-03-13T02:18:16.706Z,98804.38
2023-03-13T02:20:44.074Z,98806.97
2023-03-13T02:23:22.523Z,98818.47
2023-03-13T02:25:52.587Z,98823.78
2023-03-13T02:28:28.280Z,98823.75
2023-03-13T02:30:58.759Z,98830.78
2023-03-13T02:33:37.458Z,98843.19
2023-03-13T02:36:06.406Z,98846.72
2023-03-13T02:38:39.645Z,98851.22
2023-03-13T02:41:07.030Z,98855.75
2023-03-13T02:43:37.445Z,98861.91
2023-03-13T02:46:17.945Z,98857.53
2023-03-13T02:48:54.338Z,98868.97
2023-03-13T02:51:41.598Z,98880.41
2023-03-13T02:54:17.549Z,98890.88
2023-03-13T02:56:49.137Z,98899.75
2023-03-13T02:59:16.621Z,98917.28
2023-03-13T03:01:43.658Z,98926.19
2023-03-13T03:04:10.728Z,98946.50
2023-03-13T03:06:37.773Z,98958.91
2023-03-13T03:09:05.220Z,98981.97
2023-03-13T03:11:32.179Z,98985.59
2023-03-13T03:13:59.264Z,99009.53
2023-03-13T03:16:26.267Z,99026.25
2023-03-13T03:18:53.274Z,99043.13
2023-03-13T03:21:21.369Z,99052.84
2023-03-13T03:23:48.491Z,99052.00
2023-03-13T03:26:15.883Z,99079.28
2023-03-13T03:28:42.823Z,99085.53
2023-03-13T03:31:13.287Z,99100.50
2023-03-13T03:33:41.710Z,99115.44
2023-03-13T03:36:13.821Z,99118.09
2023-03-13T03:38:42.123Z,99119.00
2023-03-13T03:41:11.179Z,99122.53
2023-03-13T03:43:38.330Z,99112.00
2023-03-13T03:46:05.719Z,99102.38
2023-03-13T03:48:32.915Z,99072.47
2023-03-13T03:50:59.989Z,99005.69
2023-03-13T03:53:28.168Z,98974.94
2023-03-13T03:55:55.629Z,98946.81
2023-03-13T03:58:22.697Z,98930.09
2023-03-13T04:00:49.694Z,98920.44
2023-03-13T04:03:17.414Z,98913.41
2023-03-13T04:05:44.578Z,98907.22
2023-03-13T04:08:11.576Z,98891.41
2023-03-13T04:10:38.723Z,98889.66
2023-03-13T04:13:05.765Z,98887.00
2023-03-13T04:15:32.723Z,98889.59
2023-03-13T04:17:59.760Z,98892.22
2023-03-13T04:20:28.908Z,98896.56
2023-03-13T04:22:56.040Z,98893.94
2023-03-13T04:25:23.116Z,98903.59
2023-03-13T04:27:50.138Z,98912.31
2023-03-13T04:30:18.752Z,98919.34
2023-03-13T04:32:45.983Z,98929.84
2023-03-13T04:35:12.991Z,98942.00
2023-03-13T04:37:40.080Z,98955.16
2023-03-13T04:40:07.902Z,98976.13
2023-03-13T04:42:34.925Z,98991.06
2023-03-13T04:45:02.113Z,99011.13
2023-03-13T04:47:29.122Z,99031.22
2023-03-13T04:49:56.149Z,99064.53
2023-03-13T04:52:23.244Z,99078.56
2023-03-13T04:54:51.265Z,99089.88
2023-03-13T04:57:18.378Z,99097.81
2023-03-13T04:59:45.983Z,99126.78
2023-03-13T05:02:14.072Z,99148.78
2023-03-13T05:04:41.199Z,99153.13
2023-03-13T05:07:08.242Z,99169.81
2023-03-13T05:09:35.561Z,99188.28
2023-03-13T05:12:08.417Z,99207.50
2023-03-13T05:14:35.448Z,99219.81
2023-03-13T05:17:02.388Z,99234.66
2023-03-13T05:19:29.436Z,99250.56
2023-03-13T05:21:56.484Z,99251.47
2023-03-13T05:24:23.419Z,99256.69
2023-03-13T05:26:50.370Z,99255.91
2023-03-13T05:29:17.359Z,99270.81
2023-03-13T05:31:44.364Z,99269.84
2023-03-13T05:34:11.881Z,99264.56
2023-03-13T05:36:38.951Z,99268.09
2023-03-13T05:39:05.920Z,99283.03
2023-03-13T05:41:32.841Z,99286.47
2023-03-13T05:44:00.092Z,99287.28
2023-03-13T05:46:27.325Z,99292.59
2023-03-13T05:48:54.364Z,99284.63
2023-03-13T05:51:21.358Z,99295.25
2023-03-13T05:53:48.294Z,99289.97
2023-03-13T05:56:15.284Z,99299.63
2023-03-13T05:58:42.256Z,99297.84
2023-03-13T06:01:11.988Z,99315.16
2023-03-13T06:03:39.597Z,99320.50
2023-03-13T06:06:06.859Z,99327.50
2023-03-13T06:08:33.809Z,99338.94
2023-03-13T06:11:02.898Z,99328.44
2023-03-13T06:13:30.339Z,99335.41
2023-03-13T06:15:58.888Z,99345.13
2023-03-13T06:18:27.234Z,99334.59
2023-03-13T06:21:00.331Z,99345.97
2023-03-13T06:23:28.184Z,99368.91
2023-03-13T06:25:55.705Z,99363.56
2023-03-13T06:28:22.994Z,99379.38
2023-03-13T06:30:49.982Z,99399.63
2023-03-13T06:33:17.429Z,99400.53
2023-03-13T06:35:55.736Z,99396.09
2023-03-13T06:38:27.090Z,99389.97
2023-03-13T06:40:54.431Z,99376.72
2023-03-13T06:43:22.160Z,99379.28
2023-03-13T06:45:49.462Z,99395.97
2023-03-13T06:48:16.734Z,99407.41
2023-03-13T06:50:43.844Z,99403.94
2023-03-13T06:53:19.766Z,99394.22
2023-03-13T06:55:47.536Z,99397.72
2023-03-13T06:58:29.200Z,99387.91
2023-03-13T07:01:10.764Z,99391.38
2023-03-13T07:03:39.281Z,99380.66
2023-03-13T07:06:06.453Z,99380.75
2023-03-13T07:08:34.107Z,99385.22
2023-03-13T07:11:08.553Z,99387.81
2023-03-13T07:13:35.930Z,99387.63
2023-03-13T07:16:05.486Z,99394.66
2023-03-13T07:18:33.235Z,99390.88
2023-03-13T07:21:05.223Z,99370.53
2023-03-13T07:23:34.574Z,99373.91
2023-03-13T07:26:08.070Z,99385.34
2023-03-13T07:28:37.721Z,99397.13
2023-03-13T07:31:17.923Z,99400.69
2023-03-13T07:33:45.542Z,99414.00
2023-03-13T07:36:15.258Z,99406.94
2023-03-13T07:38:43.973Z,99404.28
2023-03-13T07:41:15.802Z,99405.03
2023-03-13T07:43:43.110Z,99397.94
2023-03-13T07:46:18.858Z,99411.81
2023-03-13T07:48:47.010Z,99406.59
2023-03-13T07:51:27.713Z,99415.75
2023-03-13T07:54:04.149Z,99411.22
2023-03-13T07:56:31.337Z,99404.97
2023-03-13T07:58:58.312Z,99392.53
2023-03-13T08:01:30.506Z,99388.09
2023-03-13T08:03:58.865Z,99376.34
2023-03-13T08:06:27.695Z,99363.09
2023-03-13T08:08:58.147Z,99356.91
2023-03-13T08:11:27.826Z,99351.47
2023-03-13T08:13:56.331Z,99352.41
2023-03-13T08:16:27.345Z,99356.78
2023-03-13T08:18:57.698Z,99348.84
2023-03-13T08:21:33.993Z,99356.81
2023-03-13T08:24:06.009Z,99342.84
2023-03-13T08:26:36.283Z,99341.06
2023-03-13T08:29:08.788Z,99351.06
2023-03-13T08:31:46.177Z,99352.50
2023-03-13T08:34:14.401Z,99361.28
2023-03-13T08:36:42.008Z,99353.38
2023-03-13T08:39:17.300Z,99348.13
2023-03-13T08:41:44.497Z,99352.59
2023-03-13T08:44:14.292Z,99355.00
2023-03-13T08:46:41.619Z,99350.81
2023-03-13T08:49:09.222Z,99357.09
2023-03-13T08:51:37.352Z,99350.88
2023-03-13T08:54:05.641Z,99358.78
2023-03-13T08:56:33.607Z,99351.78
2023-03-13T08:59:03.281Z,99364.09
2023-03-13T09:01:33.306Z,99358.53
2023-03-13T09:04:03.987Z,99351.41
2023-03-13T09:06:33.882Z,99355.88
2023-03-13T09:09:01.469Z,99350.69
2023-03-13T09:11:28.750Z,99346.25
2023-03-13T09:13:59.358Z,99355.13
2023-03-13T09:16:29.743Z,99360.53
2023-03-13T09:18:58.060Z,99356.09
2023-03-13T09:21:29.308Z,99350.78
2023-03-13T09:23:57.483Z,99358.78
2023-03-13T09:26:25.536Z,99353.53
2023-03-13T09:28:53.949Z,99350.00
2023-03-13T09:31:26.390Z,99357.97
2023-03-13T09:33:54.810Z,99355.25
2023-03-13T09:36:23.967Z,99358.59
2023-03-13T09:38:54.056Z,99355.88
2023-03-13T09:41:39.916Z,99346.16
2023-03-13T09:44:26.837Z,99345.94
2023-03-13T09:47:11.693Z,99331.75
2023-03-13T09:49:47.059Z,99322.81
2023-03-13T09:52:42.399Z,99320.94
2023-03-13T09:55:37.414Z,99306.72
2023-03-13T09:58:29.131Z,99308.16
2023-03-13T10:01:04.400Z,99298.97
2023-03-13T10:03:47.315Z,99291.53
2023-03-13T10:06:21.326Z,99288.72
2023-03-13T10:08:48.309Z,99271.78
2023-03-13T10:11:30.658Z,99263.66
2023-03-13T10:14:22.792Z,99257.56
2023-03-13T10:17:09.918Z,99249.63
2023-03-13T10:19:47.404Z,99241.69
2023-03-13T10:22:23.204Z,99229.09
2023-03-13T10:25:01.016Z,99220.19
2023-03-13T10:27:28.120Z,99207.59
2023-03-13T10:29:55.142Z,99206.47
2023-03-13T10:32:22.368Z,99204.16
2023-03-13T10:34:59.822Z,99208.09
2023-03-13T10:37:33.147Z,99202.47
2023-03-13T10:40:25.740Z,99188.09
2023-03-13T10:43:01.094Z,99174.38
2023-03-13T10:45:32.809Z,99169.84
2023-03-13T10:48:10.586Z,99159.84
2023-03-13T10:50:38.731Z,99147.88
2023-03-13T10:53:28.902Z,99152.91
2023-03-13T10:56:02.423Z,99111.22
2023-03-13T10:58:45.291Z,99091.06
2023-03-13T11:01:22.123Z,99084.31
2023-03-13T11:03:53.220Z,99068.63
2023-03-13T11:06:32.768Z,99036.47
2023-03-13T11:09:20.151Z,99005.88
2023-03-13T11:11:53.653Z,99022.00
2023-03-13T11:14:24.148Z,98989.88
2023-03-13T11:17:36.253Z,98983.00
2023-03-13T11:20:27.946Z,99009.41
2023-03-13T11:23:01.400Z,98964.00
2023-03-13T11:25:33.286Z,98925.31
2023-03-13T11:28:42.576Z,98942.75
2023-03-13T11:31:24.774Z,98902.34
2023-03-13T11:34:28.089Z,98888.09
2023-03-13T11:37:14.894Z,98895.25
2023-03-13T11:40:15.543Z,98899.09
2023-03-13T11:42:48.395Z,98864.50
2023-03-13T11:45:50.944Z,98881.13
2023-03-13T11:48:48.013Z,98772.38
2023-03-13T11:51:34.165Z,98805.84
2023-03-13T11:54:28.896Z,98650.03
2023-03-13T11:57:06.108Z,98615.25
2023-03-13T11:59:54.327Z,98597.50
2023-03-13T12:02:33.728Z,98548.59
2023-03-13T12:05:07.573Z,98568.06
2023-03-13T12:07:45.547Z,98484.75
2023-03-13T12:10:40.168Z,98445.44
2023-03-13T12:13:39.453Z,98448.59
2023-03-13T12:16:20.049Z,98415.72
2023-03-13T12:18:49.731Z,98429.88
2023-03-13T12:21:19.503Z,98387.81
2023-03-13T12:24:12.169Z,98371.41
2023-03-13T12:26:48.300Z,98390.16
2023-03-13T12:29:58.357Z,98316.31
2023-03-13T12:32:32.884Z,98355.06
2023-03-13T12:35:14.373Z,98300.59
2023-03-13T12:37:54.452Z,98335.13
2023-03-13T12:41:06.927Z,98247.50
2023-03-13T12:43:40.270Z,98292.56
2023-03-13T12:46:10.531Z,98290.56
2023-03-13T12:49:27.767Z,98258.81
2023-03-13T12:52:31.856Z,98229.44
2023-03-13T12:55:24.792Z,98240.38
2023-03-13T12:58:39.940Z,98291.50
2023-03-13T13:01:14.338Z,98228.75
2023-03-13T13:04:28.122Z,98215.66
2023-03-13T13:07:03.882Z,98190.56
2023-03-13T13:09:36.172Z,98227.34
2023-03-13T13:12:20.068Z,98178.38
2023-03-13T13:14:50.468Z,98144.50
2023-03-13T13:17:46.289Z,98134.47
2023-03-13T13:20:36.146Z,98096.78
2023-03-13T13:23:43.940Z,98089.31
2023-03-13T13:26:36.884Z,98099.53
2023-03-13T13:29:12.583Z,98000.25
2023-03-13T13:31:59.526Z,97962.53
2023-03-13T13:34:32.458Z,97976.22
2023-03-13T13:37:06.424Z,97914.91
2023-03-13T13:39:47.996Z,97916.06
2023-03-13T13:42:33.504Z,97883.88
2023-03-13T13:45:15.858Z,97913.03
2023-03-13T13:47:49.604Z,97845.34
2023-03-13T13:50:25.303Z,97857.66
2023-03-13T13:52:53.241Z,97827.09
2023-03-13T13:55:43.780Z,97799.97
2023-03-13T13:58:23.011Z,97770.69
2023-03-13T14:00:55.977Z,97773.69
2023-03-13T14:03:29.704Z,97780.22
2023-03-13T14:06:03.962Z,97727.09
2023-03-13T14:08:41.711Z,97743.72
2023-03-13T14:11:14.969Z,97665.88
2023-03-13T14:13:43.839Z,97699.91
2023-03-13T14:16:26.002Z,97696.03
2023-03-13T14:18:53.927Z,97592.00
2023-03-13T14:21:25.271Z,97569.28
2023-03-13T14:23:53.129Z,97536.66
2023-03-13T14:26:26.181Z,97569.78
2023-03-13T14:28:54.453Z,97536.34
2023-03-13T14:31:39.507Z,97500.63
2023-03-13T14:34:11.484Z,97467.41
2023-03-13T14:36:52.133Z,97432.75
2023-03-13T14:39:31.079Z,97429.44
2023-03-13T14:42:12.965Z,97392.91
2023-03-13T14:44:44.152Z,97376.16
2023-03-13T14:47:35.062Z,97306.31
2023-03-13T14:50:10.062Z,97294.97
2023-03-13T14:52:40.018Z,97306.25
2023-03-13T14:55:24.042Z,97267.19
2023-03-13T14:58:21.289Z,97240.44
2023-03-13T15:00:49.772Z,97239.72
2023-03-13T15:03:17.519Z,97177.56
2023-03-13T15:06:05.752Z,97143.28
2023-03-13T15:08:33.902Z,97198.13
2023-03-13T15:11:01.414Z,97148.06
2023-03-13T15:13:35.926Z,97136.66
2023-03-13T15:16:20.352Z,97113.88
2023-03-13T15:18:49.577Z,97063.97
2023-03-13T15:21:19.196Z,97059.72
2023-03-13T15:23:55.708Z,97075.63
2023-03-13T15:26:24.236Z,97045.34
2023-03-13T15:28:52.109Z,97003.19
2023-03-13T15:31:24.183Z,97003.91
2023-03-13T15:33:59.496Z,96928.78
2023-03-13T15:36:28.713Z,96931.06
2023-03-13T15:38:56.411Z,96917.69
2023-03-13T15:41:24.370Z,96883.00
2023-03-13T15:43:57.773Z,96900.28
2023-03-13T15:46:26.600Z,96897.84
2023-03-13T15:48:54.243Z,96877.59
2023-03-13T15:51:21.329Z,96753.75
2023-03-13T15:53:48.448Z,96620.41
2023-03-13T15:56:23.256Z,96635.72
2023-03-13T15:58:51.732Z,96661.75
2023-03-13T16:01:19.545Z,96690.75
2023-03-13T16:03:47.127Z,96713.81
2023-03-13T16:06:19.152Z,96697.63
2023-03-13T16:08:47.138Z,96738.94
2023-03-13T16:11:16.550Z,96755.19
2023-03-13T16:13:43.860Z,96756.00
2023-03-13T16:16:19.380Z,96765.50
2023-03-13T16:18:48.091Z,96797.69
2023-03-13T16:21:27.439Z,96880.50
2023-03-13T16:23:55.346Z,96927.97
2023-03-13T16:26:26.197Z,97011.56
2023-03-13T16:28:55.377Z,97074.22
2023-03-13T16:31:24.573Z,97173.78
2023-03-13T16:33:53.927Z,97291.28
2023-03-13T16:36:40.888Z,97410.41
2023-03-13T16:39:27.095Z,97528.59
2023-03-13T16:41:54.434Z,97593.59
2023-03-13T16:44:21.849Z,97631.81
2023-03-13T16:47:04.385Z,97673.31
2023-03-13T16:49:32.346Z,97738.38
2023-03-13T16:51:59.248Z,97799.84
2023-03-13T16:54:26.375Z,97841.72
2023-03-13T16:56:53.412Z,97868.69
2023-03-13T16:59:21.569Z,97882.13
2023-03-13T17:01:49.203Z,97931.84
2023-03-13T17:04:16.609Z,97981.75
2023-03-13T17:06:47.925Z,97983.59
2023-03-13T17:09:18.623Z,98013.59
2023-03-13T17:11:46.285Z,98018.59
2023-03-13T17:14:13.693Z,98007.38
2023-03-13T17:16:44.229Z,98011.84
2023-03-13T17:19:15.301Z,97988.00
2023-03-13T17:21:42.629Z,98005.84
2023-03-13T17:24:11.537Z,98010.44
2023-03-13T17:26:40.067Z,98014.31
2023-03-13T17:29:08.702Z,98018.81
2023-03-13T17:31:38.879Z,98010.22
2023-03-13T17:34:09.095Z,98055.31
2023-03-13T17:36:36.719Z,98035.31
2023-03-13T17:39:08.746Z,98034.66
2023-03-13T17:41:37.337Z,98053.59
2023-03-13T17:44:04.730Z,98072.19
2023-03-13T17:46:38.657Z,98095.81
2023-03-13T17:49:07.709Z,98115.16
2023-03-13T17:51:36.513Z,98125.03
2023-03-13T17:54:04.003Z,98143.97
2023-03-13T17:56:37.481Z,98166.00
2023-03-13T17:59:16.099Z,98167.22
2023-03-13T18:01:44.072Z,98182.47
2023-03-13T18:04:12.219Z,98194.75
2023-03-13T18:06:42.445Z,98207.16
2023-03-13T18:09:16.847Z,98199.38
2023-03-13T18:11:44.466Z,98187.03
2023-03-13T18:14:11.887Z,98192.38
2023-03-13T18:16:47.978Z,98182.69
2023-03-13T18:19:23.365Z,98165.84
2023-03-13T18:21:53.551Z,98180.97
2023-03-13T18:24:21.376Z,98206.72
2023-03-13T18:26:50.173Z,98223.41
2023-03-13T18:29:29.458Z,98267.81
2023-03-13T18:32:00.497Z,98286.38
2023-03-13T18:34:28.641Z,98293.41
2023-03-13T18:36:56.309Z,98304.13
2023-03-13T18:39:23.986Z,98320.31
2023-03-13T18:41:52.789Z,98300.88
2023-03-13T18:44:21.087Z,98314.09
2023-03-13T18:46:49.322Z,98299.41
2023-03-13T18:49:23.520Z,98280.09
2023-03-13T18:51:53.982Z,98276.00
2023-03-13T18:54:21.131Z,98308.56
2023-03-13T18:56:48.605Z,98354.44
2023-03-13T18:59:21.592Z,98384.97
2023-03-13T19:01:49.857Z,98413.63
2023-03-13T19:04:18.110Z,98439.06
2023-03-13T19:06:46.566Z,98438.59
2023-03-13T19:09:41.653Z,98426.59
2023-03-13T19:12:05.278Z,98367.59
2023-03-13T19:14:32.792Z,98331.41
2023-03-13T19:17:00.328Z,98311.56
2023-03-13T19:19:27.748Z,98313.44
2023-03-13T19:21:56.368Z,98308.78
2023-03-13T19:24:26.940Z,98301.38
2023-03-13T19:26:58.914Z,98291.03
2023-03-13T19:29:28.748Z,98280.25
2023-03-13T19:31:56.604Z,98275.41
2023-03-13T19:34:24.001Z,98286.22
2023-03-13T19:36:53.473Z,98288.56
2023-03-13T19:39:25.933Z,98301.41
2023-03-13T19:41:54.111Z,98314.78
2023-03-13T19:44:21.780Z,98310.47
2023-03-13T19:46:49.364Z,98311.19
2023-03-13T19:49:19.658Z,98271.19
2023-03-13T19:51:47.598Z,98249.31
2023-03-13T19:54:15.525Z,98229.00
2023-03-13T19:56:48.385Z,98211.19
2023-03-13T19:59:21.969Z,98164.72
2023-03-13T20:01:49.596Z,98138.56
2023-03-13T20:04:16.911Z,98119.38
2023-03-13T20:09:23.362Z,98150.72
2023-03-13T20:11:50.801Z,98146.25
2023-03-13T20:14:18.295Z,98157.16
2023-03-13T20:16:48.853Z,98157.38
2023-03-13T20:19:16.401Z,98172.09
2023-03-13T20:21:43.436Z,98176.06
2023-03-13T20:24:11.020Z,98182.50
2023-03-13T20:26:38.429Z,98183.53
2023-03-13T20:29:05.537Z,98195.97
2023-03-13T20:31:33.208Z,98212.13
2023-03-13T20:34:00.545Z,98234.28
2023-03-13T20:36:28.190Z,98243.91
2023-03-13T20:38:55.389Z,98248.53
2023-03-13T20:41:25.810Z,98273.22
2023-03-13T20:43:55.826Z,98295.94
2023-03-13T20:46:22.995Z,98293.97
2023-03-13T20:48:50.438Z,98301.59
2023-03-13T20:51:30.755Z,98304.34
2023-03-13T20:54:12.709Z,98339.63
2023-03-13T20:56:41.021Z,98365.25
2023-03-13T20:59:08.233Z,98369.97
2023-03-13T21:01:35.362Z,98378.97
2023-03-13T21:04:02.500Z,98380.81
2023-03-13T21:06:30.270Z,98400.25
2023-03-13T21:08:57.382Z,98404.81
2023-03-13T21:11:24.432Z,98418.16
2023-03-13T21:13:51.730Z,98441.88
2023-03-13T21:16:20.106Z,98449.00
2023-03-13T21:18:47.852Z,98456.91
2023-03-13T21:21:18.900Z,98463.97
2023-03-13T21:23:46.927Z,98467.47
2023-03-13T21:26:15.029Z,98497.44
2023-03-13T21:28:42.402Z,98495.66
2023-03-13T21:31:19.593Z,98496.53
2023-03-13T21:33:47.593Z,98479.84
2023-03-13T21:36:17.366Z,98475.41
2023-03-13T21:38:44.818Z,98474.56
2023-03-13T21:41:16.645Z,98460.47
2023-03-13T21:43:43.838Z,98447.25
2023-03-13T21:46:13.736Z,98440.22
2023-03-13T21:48:42.883Z,98415.56
2023-03-13T21:51:10.565Z,98408.56
2023-03-13T21:53:38.821Z,98386.59
2023-03-13T21:56:06.606Z,98370.69
2023-03-13T21:58:33.693Z,98343.41
2023-03-13T22:01:00.789Z,98303.75
2023-03-13T22:03:27.818Z,98268.66
2023-03-13T22:05:55.381Z,98244.81
2023-03-13T22:08:22.561Z,98231.59
2023-03-13T22:10:52.305Z,98235.06
2023-03-13T22:13:19.357Z,98246.44
2023-03-13T22:15:46.951Z,98267.53
2023-03-13T22:18:17.224Z,98292.31
2023-03-13T22:20:44.618Z,98312.44
2023-03-13T22:23:12.891Z,98310.63
2023-03-13T22:25:42.450Z,98321.09
2023-03-13T22:28:10.987Z,98346.72
2023-03-13T22:30:39.360Z,98345.91
2023-03-13T22:33:07.873Z,98344.16
2023-03-13T22:35:37.633Z,98355.44
2023-03-13T22:38:05.298Z,98360.59
2023-03-13T22:40:32.931Z,98379.91
2023-03-13T22:43:00.562Z,98380.75
2023-03-13T22:45:28.007Z,98394.84
2023-03-13T22:47:55.374Z,98413.03
2023-03-13T22:50:25.768Z,98409.75
2023-03-13T22:52:53.522Z,98434.31
2023-03-13T22:55:20.895Z,98452.81
2023-03-13T22:57:48.349Z,98484.50
2023-03-13T23:00:16.369Z,98497.63
2023-03-13T23:02:43.859Z,98505.59
2023-03-13T23:05:11.380Z,98495.16
2023-03-13T23:07:40.852Z,98500.25
2023-03-13T23:10:10.166Z,98517.16
2023-03-13T23:12:37.529Z,98524.16
2023-03-13T23:15:06.252Z,98545.31
2023-03-13T23:17:35.061Z,98547.06
2023-03-13T23:20:09.407Z,98552.31
2023-03-13T23:22:36.894Z,98556.81
2023-03-13T23:25:04.605Z,98554.16
2023-03-13T23:27:32.094Z,98563.00
2023-03-13T23:30:01.908Z,98569.28
2023-03-13T23:32:29.243Z,98566.59
2023-03-13T23:34:58.575Z,98573.66
2023-03-13T23:37:25.562Z,98572.72
2023-03-13T23:39:52.567Z,98583.25
2023-03-13T23:42:19.597Z,98607.13
2023-03-13T23:44:46.573Z,98605.22
2023-03-13T23:47:13.945Z,98593.03
2023-03-13T23:49:41.118Z,98591.19
2023-03-13T23:52:09.074Z,98596.56
2023-03-13T23:54:36.341Z,98607.16
2023-03-13T23:57:03.526Z,98631.78
2023-03-13T23:59:30.620Z,98632.72
